Millville, Utah
Current Conditions -  °F | °C
As of 3:51 AM on Sunday 23 Nov 2014 (Local Time) from KLGU Reporting Station
Overcast Overcast  
Wind Chill: 25°   Ceiling: 3300
Heat Index: 33°   Visibility: 9mi
Dew Point: 27°   Wind: 9mph
Humidity: 78%   Direction: 270°W
Pressure: 30"   Gusts: NA
Location:  41.68°N, 111.82°W
Report Text: KLGU 231051Z AUTO 27008KT 9SM OVC033 01/M03 A3000 RMK AO2 SNB41E51 SLP170 P0000 T00061028
Loading
Personal Weather Stations






























Interactive Weather Map New forecast layout! Learn more

10-Day Weather Forecast

Advertisements
Track Severe Weather on mobile